Time;durP1;ratioP1;P1;durP2;ratioP2;P2;SDS_P1;SDS_P2;PMS_P1;PMS_P2;Temp;Humidity;BMP_temperature;BMP_pressure;BME280_temperature;BME280_humidity;BME280_pressure;Samples;Min_cycle;Max_cycle;Signal;HPM_P1;HPM_P2
2023/02/12 00:02:16;;;;;;;85.13;47.03;;;6.80;99.90;;;;;;5032783;28;20430;-67
2023/02/12 00:04:44;;;;;;;83.27;49.00;;;6.80;99.90;;;;;;5034253;28;20474;-67
2023/02/12 00:07:12;;;;;;;77.90;45.60;;;6.80;99.90;;;;;;5027502;28;20532;-67
2023/02/12 00:09:40;;;;;;;76.57;44.97;;;6.70;99.90;;;;;;5021457;28;20464;-68
2023/02/12 00:12:07;;;;;;;86.60;46.33;;;6.80;99.90;;;;;;5021388;28;20459;-68
2023/02/12 00:14:36;;;;;;;76.10;43.90;;;6.70;99.90;;;;;;5020922;28;20459;-68
2023/02/12 00:17:03;;;;;;;73.23;42.67;;;6.70;99.90;;;;;;5023720;28;20501;-68
2023/02/12 00:19:31;;;;;;;80.40;43.67;;;6.70;99.90;;;;;;5035238;28;20870;-68
2023/02/12 00:21:58;;;;;;;78.17;43.00;;;6.70;99.90;;;;;;5025639;28;20569;-68
2023/02/12 00:24:27;;;;;;;76.97;44.27;;;6.60;99.90;;;;;;5033745;28;20455;-68
2023/02/12 00:26:54;;;;;;;78.27;42.70;;;6.60;99.90;;;;;;5033074;28;20487;-68
2023/02/12 00:29:21;;;;;;;70.60;42.17;;;6.60;99.90;;;;;;5034063;28;20876;-68
2023/02/12 00:31:49;;;;;;;75.77;42.13;;;6.60;99.90;;;;;;5036450;28;20451;-68
2023/02/12 00:34:16;;;;;;;73.80;42.87;;;6.60;99.90;;;;;;5033677;28;20474;-68
2023/02/12 00:36:43;;;;;;;75.33;43.70;;;6.70;99.90;;;;;;5034607;28;20463;-68
2023/02/12 00:39:11;;;;;;;72.37;42.10;;;6.60;99.90;;;;;;5025083;28;20462;-68
2023/02/12 00:41:40;;;;;;;75.90;42.87;;;6.70;99.90;;;;;;5033049;28;20459;-67
2023/02/12 00:44:07;;;;;;;77.70;43.87;;;6.70;99.90;;;;;;5032322;28;20470;-67
2023/02/12 00:46:35;;;;;;;80.50;45.67;;;6.70;99.90;;;;;;5033409;28;20927;-68
2023/02/12 00:49:02;;;;;;;76.37;44.30;;;6.80;99.90;;;;;;5033631;28;20459;-67
2023/02/12 00:51:29;;;;;;;69.80;40.53;;;6.70;99.90;;;;;;5033844;28;20479;-67
2023/02/12 00:53:56;;;;;;;67.23;40.60;;;6.70;99.90;;;;;;5032580;28;20754;-67
2023/02/12 00:56:25;;;;;;;78.27;43.23;;;6.70;99.90;;;;;;5032621;28;20538;-67
2023/02/12 00:58:54;;;;;;;80.07;43.37;;;6.70;99.90;;;;;;5030783;28;20912;-68
2023/02/12 01:01:21;;;;;;;77.33;42.10;;;6.70;99.90;;;;;;5033533;28;20805;-68
2023/02/12 01:03:48;;;;;;;71.33;43.00;;;6.80;99.90;;;;;;5033764;28;20482;-68
2023/02/12 01:06:15;;;;;;;68.63;40.40;;;6.80;99.90;;;;;;5033226;28;20467;-68
2023/02/12 01:08:43;;;;;;;73.67;42.00;;;6.70;99.90;;;;;;5033466;28;20466;-68
2023/02/12 01:11:13;;;;;;;71.67;43.83;;;6.70;99.90;;;;;;5033339;28;20466;-68
2023/02/12 01:13:40;;;;;;;72.73;44.27;;;6.70;99.90;;;;;;5030880;28;20466;-68
2023/02/12 01:16:14;;;;;;;72.97;43.37;;;6.70;99.90;;;;;;5032697;28;20466;-68
2023/02/12 01:18:41;;;;;;;73.13;43.67;;;6.70;99.90;;;;;;5032869;28;20463;-68
2023/02/12 01:21:14;;;;;;;79.63;43.90;;;6.70;99.90;;;;;;5032743;28;20455;-68
2023/02/12 01:23:42;;;;;;;69.23;42.40;;;6.70;99.90;;;;;;5033150;28;20470;-68
2023/02/12 01:26:10;;;;;;;73.67;40.00;;;6.70;99.90;;;;;;5031553;28;20472;-68
2023/02/12 01:28:38;;;;;;;75.27;41.20;;;6.70;99.90;;;;;;5032265;28;20481;-68
2023/02/12 01:31:11;;;;;;;72.70;42.10;;;6.70;99.90;;;;;;5032276;28;20490;-68
2023/02/12 01:33:38;;;;;;;66.47;40.73;;;6.70;99.90;;;;;;5031972;28;20460;-67
2023/02/12 01:36:06;;;;;;;65.73;40.43;;;6.70;99.90;;;;;;5030834;28;20561;-68
2023/02/12 01:38:33;;;;;;;76.37;41.30;;;6.70;99.90;;;;;;5031741;28;20494;-68
2023/02/12 01:41:04;;;;;;;70.27;41.00;;;6.70;99.90;;;;;;5032586;28;20570;-68
2023/02/12 01:43:33;;;;;;;75.73;40.30;;;6.60;99.90;;;;;;5033594;28;20465;-68
2023/02/12 01:46:01;;;;;;;70.90;42.20;;;6.60;99.90;;;;;;5032757;28;20920;-67
2023/02/12 01:48:33;;;;;;;66.37;40.40;;;6.60;99.90;;;;;;5032942;28;20578;-67
2023/02/12 01:51:02;;;;;;;75.87;42.10;;;6.60;99.90;;;;;;5030225;28;20554;-68
2023/02/12 01:53:34;;;;;;;69.87;41.87;;;6.60;99.90;;;;;;5032467;28;20950;-67
2023/02/12 01:56:03;;;;;;;70.60;39.43;;;6.60;99.90;;;;;;5035925;28;20463;-67
2023/02/12 01:58:35;;;;;;;67.37;39.73;;;6.60;99.90;;;;;;5035998;28;20459;-68
2023/02/12 02:01:06;;;;;;;64.50;37.40;;;6.50;99.90;;;;;;5036461;28;20888;-68
2023/02/12 02:03:37;;;;;;;65.33;40.10;;;6.50;99.90;;;;;;5036058;28;20551;-68
2023/02/12 02:06:11;;;;;;;68.87;40.97;;;6.50;99.90;;;;;;5035000;28;20473;-68
2023/02/12 02:08:38;;;;;;;66.57;40.23;;;6.50;99.90;;;;;;5036678;28;20875;-68
2023/02/12 02:14:31;;;;;;;72.47;41.03;;;6.60;99.90;;;;;;5035685;28;20573;-68
2023/02/12 02:16:43;;;;;;;71.90;39.00;;;6.50;99.90;;;;;;5097672;27;20907;-68
2023/02/12 02:19:24;;;;;;;66.00;39.30;;;6.50;99.90;;;;;;5032900;28;20471;-68
2023/02/12 02:22:20;;;;;;;74.93;39.10;;;6.50;99.90;;;;;;5020431;28;20570;-67
2023/02/12 02:25:23;;;;;;;65.20;40.27;;;6.60;99.90;;;;;;5016567;28;20471;-67
2023/02/12 02:28:03;;;;;;;66.63;41.77;;;6.50;99.90;;;;;;5028436;28;20493;-67
2023/02/12 02:30:45;;;;;;;63.90;39.13;;;6.50;99.90;;;;;;5036267;28;20554;-67
2023/02/12 02:33:35;;;;;;;68.70;39.83;;;6.50;99.90;;;;;;5035644;28;20553;-67
2023/02/12 02:36:16;;;;;;;62.37;40.37;;;6.50;99.90;;;;;;5036092;28;20992;-67
2023/02/12 02:38:48;;;;;;;70.13;39.17;;;6.50;99.90;;;;;;5029722;28;20443;-67
2023/02/12 02:41:21;;;;;;;66.23;37.57;;;6.50;99.90;;;;;;5036003;28;20454;-67
2023/02/12 02:43:50;;;;;;;61.90;39.33;;;6.50;99.90;;;;;;5048031;28;20554;-67
2023/02/12 02:46:27;;;;;;;62.67;36.57;;;6.40;99.90;;;;;;5034425;28;20466;-67
2023/02/12 02:49:00;;;;;;;66.03;41.40;;;6.40;99.90;;;;;;5041366;28;20500;-67
2023/02/12 02:51:31;;;;;;;65.27;38.77;;;6.40;99.90;;;;;;5056293;28;20835;-67
2023/02/12 02:54:05;;;;;;;65.27;37.57;;;6.40;99.90;;;;;;5039472;28;20494;-67
2023/02/12 02:56:38;;;;;;;60.27;35.53;;;6.50;99.90;;;;;;5035248;28;20463;-67
2023/02/12 02:59:09;;;;;;;63.90;39.00;;;6.40;99.90;;;;;;5035987;28;20976;-67
2023/02/12 03:01:43;;;;;;;69.80;37.37;;;6.40;99.90;;;;;;5035336;28;20557;-67
2023/02/12 03:04:17;;;;;;;67.47;40.00;;;6.40;99.90;;;;;;5035273;28;20558;-67
2023/02/12 03:06:48;;;;;;;63.63;37.03;;;6.40;99.90;;;;;;5035218;28;20503;-67
2023/02/12 03:09:21;;;;;;;72.73;40.23;;;6.40;99.90;;;;;;5036149;28;20502;-67
2023/02/12 03:11:49;;;;;;;76.60;42.00;;;6.40;99.90;;;;;;5035529;28;20832;-67
2023/02/12 03:14:22;;;;;;;70.73;38.70;;;6.40;99.90;;;;;;5035661;28;20463;-67
2023/02/12 03:16:57;;;;;;;71.20;38.83;;;6.50;99.90;;;;;;5035162;28;20553;-67
2023/02/12 03:19:27;;;;;;;69.63;39.80;;;6.40;99.90;;;;;;5035395;28;20537;-67
2023/02/12 03:21:58;;;;;;;71.00;42.80;;;6.40;99.90;;;;;;5035581;28;20561;-67
2023/02/12 03:24:32;;;;;;;65.70;39.80;;;6.40;99.90;;;;;;5035584;28;20481;-67
2023/02/12 03:27:03;;;;;;;68.77;39.77;;;6.40;99.90;;;;;;5034791;28;20549;-67
2023/02/12 03:29:31;;;;;;;68.77;39.27;;;6.50;99.90;;;;;;5035341;28;20571;-67
2023/02/12 03:32:16;;;;;;;66.37;38.97;;;6.50;99.90;;;;;;5035409;28;20555;-67
2023/02/12 03:34:50;;;;;;;62.73;36.37;;;6.50;99.90;;;;;;5035591;28;20553;-68
2023/02/12 03:37:25;;;;;;;61.53;37.13;;;6.40;99.90;;;;;;5034687;28;20445;-68
2023/02/12 03:39:56;;;;;;;74.40;40.10;;;6.30;99.90;;;;;;5033947;28;20467;-68
2023/02/12 03:42:34;;;;;;;69.23;38.20;;;6.30;99.90;;;;;;5034983;28;20538;-68
2023/02/12 03:45:08;;;;;;;65.73;38.27;;;6.30;99.90;;;;;;5035350;28;20470;-67
2023/02/12 03:47:42;;;;;;;58.03;34.93;;;6.20;99.90;;;;;;5035271;28;20530;-67
2023/02/12 03:50:13;;;;;;;72.47;38.30;;;6.20;99.90;;;;;;5034811;28;20557;-67
2023/02/12 03:52:43;;;;;;;61.17;37.87;;;6.10;99.90;;;;;;5015317;28;20463;-67
2023/02/12 03:55:11;;;;;;;66.07;37.67;;;6.10;99.90;;;;;;5015624;28;20463;-67
2023/02/12 03:57:42;;;;;;;66.47;38.50;;;6.00;99.90;;;;;;5024804;28;20500;-67
2023/02/12 04:00:12;;;;;;;65.90;39.50;;;6.00;99.90;;;;;;5034678;28;20907;-67
2023/02/12 04:02:42;;;;;;;63.50;36.90;;;6.00;99.90;;;;;;5035012;28;20542;-67
2023/02/12 04:05:17;;;;;;;74.60;41.90;;;6.00;99.90;;;;;;5035334;28;20463;-67
2023/02/12 04:07:44;;;;;;;63.57;38.00;;;6.00;99.90;;;;;;5033944;28;20486;-67
2023/02/12 04:10:12;;;;;;;63.10;37.90;;;6.10;99.90;;;;;;5034480;28;20554;-67
2023/02/12 04:12:46;;;;;;;63.50;36.47;;;6.10;99.90;;;;;;5034921;28;20469;-67
2023/02/12 04:15:36;;;;;;;64.83;39.90;;;6.10;99.90;;;;;;5034720;28;20474;-67
2023/02/12 04:18:10;;;;;;;76.00;41.20;;;6.10;99.90;;;;;;5033079;28;20458;-67
2023/02/12 04:20:48;;;;;;;63.83;37.03;;;6.10;99.90;;;;;;5034732;28;20474;-67
2023/02/12 04:23:25;;;;;;;73.40;38.33;;;6.20;99.90;;;;;;5034327;28;20751;-67
2023/02/12 04:26:00;;;;;;;69.87;40.10;;;6.20;99.90;;;;;;5034144;28;20466;-67
2023/02/12 04:28:43;;;;;;;62.33;36.90;;;6.20;99.90;;;;;;5033840;28;20497;-67
2023/02/12 04:31:21;;;;;;;66.17;39.57;;;6.20;99.90;;;;;;5034326;28;20551;-67
2023/02/12 04:33:58;;;;;;;68.93;38.63;;;6.10;99.90;;;;;;5034228;28;20566;-68
2023/02/12 04:36:29;;;;;;;64.07;37.10;;;6.10;99.90;;;;;;5034461;28;20557;-67
2023/02/12 04:39:00;;;;;;;63.60;36.77;;;6.10;99.90;;;;;;5033112;28;20894;-67
2023/02/12 04:41:27;;;;;;;67.10;37.40;;;6.20;99.90;;;;;;5034352;28;20767;-67
2023/02/12 04:43:55;;;;;;;64.23;37.67;;;6.10;99.90;;;;;;5033885;28;20532;-67
2023/02/12 04:46:22;;;;;;;66.03;38.20;;;6.20;99.90;;;;;;5034392;28;20554;-67
2023/02/12 04:48:54;;;;;;;66.00;37.20;;;6.20;99.90;;;;;;5033508;28;20498;-67
2023/02/12 04:51:22;;;;;;;59.70;36.20;;;6.20;99.90;;;;;;5034350;28;20959;-67
2023/02/12 04:53:50;;;;;;;67.30;36.90;;;6.20;99.90;;;;;;5033751;28;20586;-67
2023/02/12 04:56:17;;;;;;;62.10;36.80;;;6.20;99.90;;;;;;5033874;28;20555;-67
2023/02/12 04:58:45;;;;;;;68.07;37.40;;;6.20;99.90;;;;;;5033942;28;20466;-67
2023/02/12 05:01:12;;;;;;;71.73;40.20;;;6.20;99.90;;;;;;5032962;28;21002;-67
2023/02/12 05:03:39;;;;;;;61.90;35.77;;;6.20;99.90;;;;;;5033236;28;20566;-67
2023/02/12 05:06:10;;;;;;;61.30;36.57;;;6.20;99.90;;;;;;5034034;28;20459;-67
2023/02/12 05:08:37;;;;;;;67.90;38.10;;;6.20;99.90;;;;;;5031310;28;20566;-67
2023/02/12 05:11:06;;;;;;;61.57;36.77;;;6.20;99.90;;;;;;5027153;28;20579;-67
2023/02/12 05:13:33;;;;;;;59.57;36.70;;;6.20;99.90;;;;;;5033848;28;20463;-67
2023/02/12 05:16:06;;;;;;;60.03;35.63;;;6.20;99.90;;;;;;5033493;28;20463;-67
2023/02/12 05:18:35;;;;;;;61.73;37.50;;;6.20;99.90;;;;;;5022124;28;20460;-67
2023/02/12 05:21:04;;;;;;;57.20;35.07;;;6.20;99.90;;;;;;5045820;28;20459;-67
2023/02/12 05:23:34;;;;;;;60.87;35.10;;;6.20;99.90;;;;;;5033783;28;20546;-67
2023/02/12 05:26:02;;;;;;;69.17;37.80;;;6.20;99.90;;;;;;5033768;28;20494;-68
2023/02/12 05:28:30;;;;;;;62.83;36.93;;;6.20;99.90;;;;;;5033953;28;20872;-67
2023/02/12 05:31:00;;;;;;;66.20;38.03;;;6.20;99.90;;;;;;5037335;28;20565;-68
2023/02/12 05:33:27;;;;;;;63.10;37.63;;;6.20;99.90;;;;;;5036857;28;20463;-67
2023/02/12 05:35:55;;;;;;;68.23;38.13;;;6.20;99.90;;;;;;5038019;28;21001;-67
2023/02/12 05:38:22;;;;;;;62.97;36.03;;;6.20;99.90;;;;;;5037552;28;20467;-67
2023/02/12 05:40:51;;;;;;;64.70;37.97;;;6.20;99.90;;;;;;5036108;28;20817;-67
2023/02/12 05:43:18;;;;;;;62.73;37.93;;;6.20;99.90;;;;;;5036472;28;20558;-67
2023/02/12 05:45:45;;;;;;;60.20;36.60;;;6.20;99.90;;;;;;5036446;28;20828;-67
2023/02/12 05:48:13;;;;;;;63.87;35.73;;;6.20;99.90;;;;;;5037204;28;20513;-67
2023/02/12 05:50:40;;;;;;;69.80;37.33;;;6.20;99.90;;;;;;5036996;28;20745;-67
2023/02/12 05:53:07;;;;;;;60.00;35.57;;;6.20;99.90;;;;;;5036122;28;20953;-67
2023/02/12 05:55:34;;;;;;;64.27;35.80;;;6.20;99.90;;;;;;5036803;28;20853;-67
2023/02/12 05:58:03;;;;;;;62.03;37.50;;;6.20;99.90;;;;;;5037469;28;20554;-67
2023/02/12 06:00:30;;;;;;;54.47;35.50;;;6.20;99.90;;;;;;5037308;28;20822;-67
2023/02/12 06:02:57;;;;;;;62.30;35.50;;;6.20;99.90;;;;;;5035992;28;20550;-67
2023/02/12 06:05:25;;;;;;;56.23;35.57;;;6.20;99.90;;;;;;5036764;28;20471;-67
2023/02/12 06:07:52;;;;;;;60.57;35.40;;;6.10;99.90;;;;;;5036253;28;20471;-68
2023/02/12 06:10:20;;;;;;;56.33;33.90;;;6.20;99.90;;;;;;5036676;28;20829;-67
2023/02/12 06:12:47;;;;;;;60.00;35.10;;;6.20;99.90;;;;;;5035588;28;20464;-67
2023/02/12 06:15:16;;;;;;;59.37;36.03;;;6.20;99.90;;;;;;5024230;28;20875;-67
2023/02/12 06:17:43;;;;;;;59.00;34.60;;;6.20;99.90;;;;;;5046909;28;20554;-67
2023/02/12 06:20:10;;;;;;;65.67;37.17;;;6.20;99.90;;;;;;5036119;28;20459;-67
2023/02/12 06:22:38;;;;;;;63.83;36.80;;;6.20;99.90;;;;;;5036308;28;20451;-67
2023/02/12 06:25:06;;;;;;;60.97;37.70;;;6.20;99.90;;;;;;5035494;28;20467;-68
2023/02/12 06:27:33;;;;;;;69.10;40.10;;;6.20;99.90;;;;;;5036194;28;20562;-67
2023/02/12 06:30:00;;;;;;;62.33;34.73;;;6.20;99.90;;;;;;5036143;28;20826;-67
2023/02/12 06:32:29;;;;;;;57.60;35.73;;;6.20;99.90;;;;;;5035613;28;21184;-68
2023/02/12 06:34:56;;;;;;;58.63;33.57;;;6.20;99.90;;;;;;5035642;28;20471;-68
2023/02/12 06:37:23;;;;;;;64.13;37.33;;;6.20;99.90;;;;;;5034697;28;20587;-67
2023/02/12 06:39:50;;;;;;;58.13;35.73;;;6.20;99.90;;;;;;5020325;28;20554;-67
2023/02/12 06:42:18;;;;;;;63.43;38.27;;;6.20;99.90;;;;;;5055907;28;20462;-67
2023/02/12 06:44:46;;;;;;;62.90;37.60;;;6.20;99.90;;;;;;5046762;28;20460;-67
2023/02/12 06:47:14;;;;;;;62.93;36.40;;;6.20;99.90;;;;;;5035689;28;20540;-67
2023/02/12 06:49:42;;;;;;;59.47;35.33;;;6.20;99.90;;;;;;5035253;28;20611;-67
2023/02/12 06:52:10;;;;;;;57.90;35.13;;;6.30;99.90;;;;;;5035653;28;20563;-67
2023/02/12 06:54:37;;;;;;;61.97;35.93;;;6.30;99.90;;;;;;5035713;28;20793;-67
2023/02/12 06:57:04;;;;;;;60.63;36.70;;;6.30;99.90;;;;;;5035774;28;20573;-67
2023/02/12 06:59:32;;;;;;;57.77;38.27;;;6.20;99.90;;;;;;5034627;28;20546;-68
2023/02/12 07:01:59;;;;;;;61.40;37.37;;;6.20;99.90;;;;;;5036085;28;20464;-68
2023/02/12 07:04:26;;;;;;;59.10;35.50;;;6.30;99.90;;;;;;5035524;28;20551;-67
2023/02/12 07:06:54;;;;;;;57.53;35.10;;;6.30;99.90;;;;;;5033043;28;20558;-67
2023/02/12 07:09:22;;;;;;;60.90;36.97;;;6.30;99.90;;;;;;5020142;28;20513;-68
2023/02/12 07:11:49;;;;;;;56.30;34.67;;;6.30;99.90;;;;;;5035851;28;20586;-68
2023/02/12 07:14:17;;;;;;;55.30;34.37;;;6.30;99.90;;;;;;5035054;28;20477;-68
2023/02/12 07:16:44;;;;;;;54.10;34.47;;;6.30;99.90;;;;;;5025409;28;20467;-68
2023/02/12 07:19:13;;;;;;;61.83;34.77;;;6.30;99.90;;;;;;5029377;28;20466;-68
2023/02/12 07:21:41;;;;;;;65.50;36.77;;;6.30;99.90;;;;;;5027417;28;21765;-68
2023/02/12 07:24:11;;;;;;;59.53;36.87;;;6.40;99.90;;;;;;5032315;27;20469;-68
2023/02/12 07:26:38;;;;;;;54.47;32.70;;;6.40;99.90;;;;;;5019960;28;20443;-68
2023/02/12 07:29:06;;;;;;;60.83;35.60;;;6.40;99.90;;;;;;5036102;28;20491;-67
2023/02/12 07:31:33;;;;;;;61.00;37.20;;;6.40;99.90;;;;;;5034262;28;20981;-67
2023/02/12 07:34:01;;;;;;;62.47;37.50;;;6.40;99.90;;;;;;5034965;28;20558;-67
2023/02/12 07:36:31;;;;;;;56.37;35.77;;;6.40;99.90;;;;;;5035458;28;20516;-67
2023/02/12 07:39:00;;;;;;;59.13;35.60;;;6.40;99.90;;;;;;5035214;28;20482;-67
2023/02/12 07:41:30;;;;;;;59.70;34.67;;;6.50;99.90;;;;;;5034835;28;20469;-67
2023/02/12 07:43:59;;;;;;;61.20;35.57;;;6.50;99.90;;;;;;5033864;28;20587;-67
2023/02/12 07:46:29;;;;;;;52.03;34.00;;;6.60;99.90;;;;;;5056356;27;20450;-67
2023/02/12 07:48:57;;;;;;;66.80;36.70;;;6.60;99.90;;;;;;5025060;28;20490;-67
2023/02/12 07:51:25;;;;;;;66.50;39.30;;;6.60;99.90;;;;;;5046738;28;20470;-67
2023/02/12 07:53:52;;;;;;;64.20;37.50;;;6.70;99.90;;;;;;5033359;28;20567;-67
2023/02/12 07:56:21;;;;;;;69.63;41.13;;;6.70;99.90;;;;;;5035008;28;20471;-67
2023/02/12 07:58:52;;;;;;;63.10;39.00;;;6.70;99.90;;;;;;5034879;28;20892;-67
2023/02/12 08:01:22;;;;;;;72.13;40.77;;;6.80;99.90;;;;;;5034220;28;20566;-67
2023/02/12 08:03:50;;;;;;;66.57;42.00;;;6.80;99.90;;;;;;5034698;28;20463;-67
2023/02/12 08:06:19;;;;;;;72.30;44.30;;;6.80;99.90;;;;;;5034535;28;20550;-67
2023/02/12 08:08:47;;;;;;;75.43;45.83;;;6.80;99.90;;;;;;5034750;28;20939;-67
2023/02/12 08:11:15;;;;;;;75.30;46.23;;;6.90;99.90;;;;;;5034830;28;20554;-67
2023/02/12 08:13:42;;;;;;;89.07;47.57;;;6.80;99.90;;;;;;5027298;28;20555;-67
2023/02/12 08:16:14;;;;;;;78.10;47.00;;;6.90;99.90;;;;;;5021421;28;20504;-67
2023/02/12 08:18:41;;;;;;;79.50;45.67;;;7.00;99.90;;;;;;5013629;28;20555;-67
2023/02/12 08:21:11;;;;;;;71.73;42.60;;;7.10;99.90;;;;;;5030981;28;20466;-67
2023/02/12 08:23:38;;;;;;;71.90;44.57;;;7.30;99.90;;;;;;5026790;28;20463;-67
2023/02/12 08:26:08;;;;;;;67.07;45.40;;;7.40;99.90;;;;;;5023635;28;20562;-67
2023/02/12 08:28:36;;;;;;;75.20;43.40;;;7.40;99.90;;;;;;5023179;28;20466;-67
2023/02/12 08:31:04;;;;;;;67.83;42.60;;;7.50;99.90;;;;;;5030683;28;20486;-67
2023/02/12 08:33:33;;;;;;;68.07;40.43;;;7.50;99.90;;;;;;5027774;28;20469;-67
2023/02/12 08:36:05;;;;;;;68.67;43.23;;;7.60;99.90;;;;;;5030305;28;20573;-67
2023/02/12 08:38:32;;;;;;;65.47;40.53;;;7.60;99.90;;;;;;5029018;28;20555;-66
2023/02/12 08:41:03;;;;;;;75.70;43.23;;;7.70;99.90;;;;;;5028072;28;20464;-67
2023/02/12 08:43:30;;;;;;;66.10;40.47;;;7.80;99.90;;;;;;5016626;28;20462;-66
2023/02/12 08:46:02;;;;;;;66.33;41.80;;;7.80;99.90;;;;;;5017773;28;20500;-66
2023/02/12 08:48:30;;;;;;;68.90;42.47;;;7.80;99.90;;;;;;5026968;28;20517;-66
2023/02/12 08:51:04;;;;;;;64.90;40.10;;;7.80;99.90;;;;;;5028417;28;20520;-66
2023/02/12 08:53:32;;;;;;;61.77;39.07;;;7.90;99.90;;;;;;5037058;28;20508;-66
2023/02/12 08:55:59;;;;;;;69.63;43.27;;;7.90;99.90;;;;;;5039722;28;20541;-66
2023/02/12 08:58:26;;;;;;;62.77;38.67;;;8.00;99.90;;;;;;5033797;28;20482;-66
2023/02/12 09:00:54;;;;;;;59.70;38.80;;;8.00;99.90;;;;;;5043457;28;20904;-66
2023/02/12 09:03:21;;;;;;;55.90;36.80;;;8.10;99.90;;;;;;5032759;28;20463;-66
2023/02/12 09:05:48;;;;;;;58.10;35.60;;;8.20;99.90;;;;;;5034271;28;20460;-66
2023/02/12 09:08:17;;;;;;;60.50;37.30;;;8.20;99.90;;;;;;5034983;28;20450;-66
2023/02/12 09:10:45;;;;;;;57.30;33.57;;;8.30;99.90;;;;;;5034266;28;20594;-66
2023/02/12 09:13:13;;;;;;;54.90;37.07;;;8.30;99.90;;;;;;5035688;28;20869;-66
2023/02/12 09:15:41;;;;;;;56.63;41.70;;;8.40;99.90;;;;;;5032978;28;20433;-66
2023/02/12 09:18:08;;;;;;;48.87;34.43;;;8.50;99.90;;;;;;5036127;28;20557;-66
2023/02/12 09:20:39;;;;;;;49.37;34.17;;;8.50;99.90;;;;;;5037220;28;20437;-66
2023/02/12 09:23:06;;;;;;;51.80;34.43;;;8.50;99.90;;;;;;5037385;28;20474;-66
2023/02/12 09:25:39;;;;;;;53.70;35.77;;;8.60;99.90;;;;;;5036479;28;20465;-66
2023/02/12 09:28:06;;;;;;;48.70;34.93;;;8.70;99.90;;;;;;5037483;28;20839;-66
2023/02/12 09:30:33;;;;;;;48.50;33.53;;;8.70;99.90;;;;;;5036783;28;20491;-66
2023/02/12 09:33:00;;;;;;;50.60;34.10;;;8.80;99.90;;;;;;5037115;28;20467;-66
2023/02/12 09:35:27;;;;;;;42.67;28.63;;;8.90;99.90;;;;;;5037676;28;20986;-66
2023/02/12 09:37:55;;;;;;;45.00;31.90;;;8.80;99.90;;;;;;5040221;28;20854;-65
2023/02/12 09:40:30;;;;;;;44.23;30.03;;;8.80;99.90;;;;;;5036718;28;20485;-65
2023/02/12 09:43:14;;;;;;;49.30;31.57;;;9.00;99.90;;;;;;5036488;28;20963;-65
2023/02/12 09:45:47;;;;;;;41.27;28.67;;;9.00;99.90;;;;;;5036656;28;20470;-65
2023/02/12 09:48:32;;;;;;;50.83;33.50;;;9.00;99.90;;;;;;5036513;28;20466;-65
2023/02/12 09:51:04;;;;;;;47.33;31.83;;;9.10;99.90;;;;;;5036241;28;20491;-65
2023/02/12 09:53:33;;;;;;;46.90;29.20;;;9.10;99.90;;;;;;5036547;28;20490;-65
2023/02/12 09:56:00;;;;;;;44.03;28.17;;;9.20;99.90;;;;;;5036778;28;20467;-65
2023/02/12 09:58:35;;;;;;;39.30;26.97;;;9.00;99.90;;;;;;5036419;28;20467;-65
2023/02/12 10:01:11;;;;;;;43.13;28.87;;;9.10;99.90;;;;;;5036335;28;20883;-65
2023/02/12 10:03:39;;;;;;;39.60;27.20;;;9.20;99.90;;;;;;5033267;28;20485;-65
2023/02/12 10:06:12;;;;;;;39.00;27.47;;;9.40;99.90;;;;;;5046230;28;20759;-65
2023/02/12 10:09:08;;;;;;;42.27;29.87;;;9.50;99.90;;;;;;5037865;28;20516;-65
2023/02/12 10:11:56;;;;;;;38.30;28.57;;;9.60;99.90;;;;;;5015051;28;20570;-65
2023/02/12 10:14:52;;;;;;;43.60;30.43;;;9.40;99.90;;;;;;5017889;28;20468;-65
2023/02/12 10:17:28;;;;;;;40.70;27.13;;;9.50;1.00;;;;;;5034783;28;20557;-65
2023/02/12 10:20:26;;;;;;;39.00;25.70;;;9.60;99.90;;;;;;5036200;28;20459;-65
2023/02/12 10:23:06;;;;;;;37.23;24.37;;;9.60;64.50;;;;;;5035569;28;20569;-65
2023/02/12 10:25:40;;;;;;;30.20;22.07;;;9.70;99.70;;;;;;5035885;28;20495;-65
2023/02/12 10:28:12;;;;;;;33.23;25.40;;;9.70;1.00;;;;;;5035585;28;20552;-64
2023/02/12 10:30:48;;;;;;;31.03;22.30;;;9.80;1.00;;;;;;5034459;28;20926;-65
2023/02/12 10:33:19;;;;;;;31.27;23.97;;;9.80;99.90;;;;;;5033308;28;20488;-65
2023/02/12 10:35:51;;;;;;;34.27;24.37;;;9.60;99.90;;;;;;5033938;28;20467;-65
2023/02/12 10:38:21;;;;;;;33.93;24.43;;;9.00;99.90;;;;;;5032711;28;20912;-65
2023/02/12 10:40:49;;;;;;;36.50;25.90;;;9.00;1.00;;;;;;5033833;28;20459;-64
2023/02/12 10:43:17;;;;;;;33.57;23.47;;;9.20;1.00;;;;;;5034873;28;20482;-65
2023/02/12 10:45:45;;;;;;;30.40;23.63;;;9.40;1.00;;;;;;5034302;28;20892;-65
2023/02/12 10:48:17;;;;;;;39.80;24.20;;;9.50;1.00;;;;;;5034589;28;20462;-65
2023/02/12 10:50:57;;;;;;;35.70;24.90;;;9.60;1.00;;;;;;5035116;28;20590;-65
2023/02/12 10:53:29;;;;;;;32.80;24.20;;;9.70;1.00;;;;;;5035579;28;20501;-65
2023/02/12 10:56:16;;;;;;;36.20;25.60;;;9.60;99.90;;;;;;5036070;28;20463;-65
2023/02/12 10:58:52;;;;;;;32.67;24.67;;;9.30;76.30;;;;;;5029924;28;20551;-65
2023/02/12 11:01:25;;;;;;;37.43;26.70;;;9.10;1.00;;;;;;5035060;28;20459;-64
2023/02/12 11:03:53;;;;;;;38.33;26.60;;;9.30;1.00;;;;;;5048694;27;20458;-64
2023/02/12 11:06:23;;;;;;;37.30;27.37;;;9.50;1.00;;;;;;5015316;28;20474;-64
2023/02/12 11:08:51;;;;;;;27.90;23.03;;;9.70;1.00;;;;;;5032965;28;20562;-64
2023/02/12 11:11:21;;;;;;;33.77;21.57;;;9.90;1.00;;;;;;5035425;28;20589;-64
2023/02/12 11:13:56;;;;;;;33.50;22.13;;;10.00;1.00;;;;;;5033679;28;20470;-64
2023/02/12 11:16:33;;;;;;;35.70;23.83;;;10.10;1.00;;;;;;5035643;28;20537;-64
2023/02/12 11:19:03;;;;;;;33.70;24.77;;;10.10;1.00;;;;;;5034522;28;20466;-64
2023/02/12 11:21:31;;;;;;;34.10;24.70;;;10.20;1.00;;;;;;5035636;28;20487;-64
2023/02/12 11:24:18;;;;;;;30.93;23.07;;;10.20;1.00;;;;;;5035200;28;20463;-64
2023/02/12 11:26:45;;;;;;;33.50;25.73;;;10.30;1.00;;;;;;5034231;28;20463;-64
2023/02/12 11:29:19;;;;;;;34.40;23.63;;;10.40;1.00;;;;;;5033253;28;20490;-64
2023/02/12 11:32:01;;;;;;;29.33;23.67;;;10.50;1.00;;;;;;5033394;28;20467;-64
2023/02/12 11:34:28;;;;;;;33.07;23.10;;;10.60;1.00;;;;;;5031410;28;20552;-64
2023/02/12 11:36:56;;;;;;;30.67;22.50;;;10.60;1.00;;;;;;5033659;28;20731;-64
2023/02/12 11:39:27;;;;;;;32.57;23.37;;;10.70;1.00;;;;;;5033423;28;20723;-64
2023/02/12 11:41:57;;;;;;;36.77;25.60;;;10.60;1.00;;;;;;5034453;28;20462;-61
2023/02/12 11:44:27;;;;;;;33.90;24.40;;;10.60;1.00;;;;;;5033389;28;20580;-62
2023/02/12 11:46:58;;;;;;;33.40;24.70;;;10.60;1.00;;;;;;5034813;28;20465;-64
2023/02/12 11:49:29;;;;;;;35.73;26.33;;;10.70;1.00;;;;;;5034466;28;20903;-64
2023/02/12 11:52:00;;;;;;;37.13;25.50;;;10.60;1.00;;;;;;5034924;28;20844;-64
2023/02/12 11:54:31;;;;;;;35.40;26.30;;;10.60;1.00;;;;;;5034783;28;20495;-64
2023/02/12 11:56:58;;;;;;;33.83;23.83;;;10.50;1.00;;;;;;5035059;28;20467;-64
2023/02/12 11:59:33;;;;;;;30.30;22.57;;;10.50;1.00;;;;;;5033908;28;20470;-64
2023/02/12 12:02:14;;;;;;;37.83;24.33;;;10.60;1.00;;;;;;5034961;28;20527;-64
2023/02/12 12:04:41;;;;;;;33.00;25.70;;;10.60;1.00;;;;;;5035075;28;20557;-64
2023/02/12 12:07:17;;;;;;;35.77;25.33;;;10.40;1.00;;;;;;5034996;28;20468;-64
2023/02/12 12:09:49;;;;;;;35.70;26.60;;;10.40;1.00;;;;;;5020823;28;20566;-64
2023/02/12 12:12:22;;;;;;;32.57;24.87;;;10.40;1.00;;;;;;5034152;28;20820;-63
2023/02/12 12:20:35;;;;;;;32.10;23.70;;;10.50;1.00;;;;;;5033355;28;20886;-65
2023/02/12 12:23:10;;;;;;;33.80;24.93;;;10.50;1.00;;;;;;5034937;28;20550;-65
2023/02/12 12:25:43;;;;;;;36.90;23.10;;;10.50;1.00;;;;;;5034457;28;20519;-65
2023/02/12 12:28:27;;;;;;;36.97;23.33;;;10.50;1.00;;;;;;5034649;28;20468;-65
2023/02/12 12:31:08;;;;;;;34.17;24.60;;;10.50;1.00;;;;;;5027869;28;20495;-65
2023/02/12 12:33:46;;;;;;;32.60;23.50;;;10.40;1.00;;;;;;5025952;28;20910;-65
2023/02/12 12:37:05;;;;;;;30.87;24.90;;;10.50;1.00;;;;;;5031533;28;20503;-65
2023/02/12 12:39:36;;;;;;;31.50;22.80;;;10.40;1.00;;;;;;5022353;28;20471;-65
2023/02/12 12:42:33;;;;;;;37.77;25.47;;;10.40;1.00;;;;;;5026727;28;20546;-64
2023/02/12 12:45:17;;;;;;;29.73;22.20;;;10.50;1.00;;;;;;5029604;28;20473;-65
2023/02/12 12:48:02;;;;;;;38.43;26.30;;;10.50;1.00;;;;;;5030802;28;20969;-65
2023/02/12 12:50:56;;;;;;;38.90;24.83;;;10.50;1.00;;;;;;5013801;28;20502;-63
2023/02/12 12:53:35;;;;;;;36.73;23.97;;;10.30;1.00;;;;;;5031268;28;20494;-63
2023/02/12 12:56:14;;;;;;;31.93;24.00;;;10.20;1.00;;;;;;5031965;28;20463;-63
2023/02/12 12:58:56;;;;;;;39.33;24.30;;;10.30;1.00;;;;;;5032079;28;20467;-63
2023/02/12 13:01:47;;;;;;;30.23;23.03;;;10.50;1.00;;;;;;5087524;28;20464;-63
2023/02/12 13:04:52;;;;;;;36.43;23.43;;;10.40;1.00;;;;;;5024306;28;20898;-63
2023/02/12 13:07:35;;;;;;;30.50;22.47;;;10.40;1.00;;;;;;5033488;28;20478;-63
2023/02/12 13:10:13;;;;;;;33.83;23.10;;;10.30;1.00;;;;;;5030807;28;20880;-63